sensor_id;sensor_type;location;lat;lon;timestamp;pressure;altitude;pressure_sealevel;temperature;humidity
58775;BME280;44545;47.480;19.024;2024-02-21T04:24:06;100865.28;;;6.11;100.00
58775;BME280;44545;47.480;19.024;2024-02-21T04:27:09;100865.28;;;6.11;100.00
58775;BME280;44545;47.480;19.024;2024-02-21T04:30:11;100867.56;;;5.43;100.00
58775;BME280;44545;47.480;19.024;2024-02-21T04:33:14;100868.22;;;5.40;100.00
58775;BME280;44545;47.480;19.024;2024-02-21T04:36:16;100870.56;;;5.37;100.00
58775;BME280;44545;47.480;19.024;2024-02-21T04:39:18;100866.41;;;5.39;100.00
58775;BME280;44545;47.480;19.024;2024-02-21T04:42:21;100857.87;;;5.40;100.00
58775;BME280;44545;47.480;19.024;2024-02-21T04:45:23;100860.69;;;5.43;100.00
58775;BME280;44545;47.480;19.024;2024-02-21T04:48:25;100864.19;;;5.44;100.00
58775;BME280;44545;47.480;19.024;2024-02-21T04:51:28;100851.88;;;5.52;100.00
58775;BME280;44545;47.480;19.024;2024-02-21T04:54:30;100860.47;;;5.30;100.00
58775;BME280;44545;47.480;19.024;2024-02-21T04:57:33;100865.13;;;5.14;100.00
58775;BME280;44545;47.480;19.024;2024-02-21T05:00:35;100864.88;;;5.11;100.00
58775;BME280;44545;47.480;19.024;2024-02-21T05:03:38;100864.25;;;5.03;100.00
58775;BME280;44545;47.480;19.024;2024-02-21T05:06:41;100868.91;;;4.87;100.00
58775;BME280;44545;47.480;19.024;2024-02-21T05:09:46;100873.19;;;4.86;100.00
58775;BME280;44545;47.480;19.024;2024-02-21T05:12:49;100879.50;;;4.80;100.00
58775;BME280;44545;47.480;19.024;2024-02-21T05:15:52;100885.72;;;4.82;100.00
58775;BME280;44545;47.480;19.024;2024-02-21T05:18:54;100884.41;;;4.66;100.00
58775;BME280;44545;47.480;19.024;2024-02-21T05:21:59;100878.59;;;4.59;100.00
58775;BME280;44545;47.480;19.024;2024-02-21T05:25:01;100879.09;;;4.54;100.00
58775;BME280;44545;47.480;19.024;2024-02-21T05:28:03;100878.19;;;4.54;100.00
58775;BME280;44545;47.480;19.024;2024-02-21T05:31:08;100873.03;;;4.74;100.00
58775;BME280;44545;47.480;19.024;2024-02-21T05:34:11;100875.06;;;4.68;100.00
58775;BME280;44545;47.480;19.024;2024-02-21T05:37:13;100868.75;;;4.65;100.00
58775;BME280;44545;47.480;19.024;2024-02-21T05:40:16;100871.22;;;4.73;100.00
58775;BME280;44545;47.480;19.024;2024-02-21T05:43:18;100868.63;;;4.73;100.00
58775;BME280;44545;47.480;19.024;2024-02-21T05:46:21;100867.72;;;4.83;100.00
58775;BME280;44545;47.480;19.024;2024-02-21T05:49:23;100861.81;;;4.94;100.00
58775;BME280;44545;47.480;19.024;2024-02-21T05:52:26;100867.22;;;4.97;100.00
58775;BME280;44545;47.480;19.024;2024-02-21T05:55:28;100872.91;;;5.04;100.00
58775;BME280;44545;47.480;19.024;2024-02-21T05:58:31;100867.19;;;5.28;100.00
58775;BME280;44545;47.480;19.024;2024-02-21T06:01:33;100879.22;;;5.28;100.00
58775;BME280;44545;47.480;19.024;2024-02-21T06:04:36;100884.78;;;5.22;100.00
58775;BME280;44545;47.480;19.024;2024-02-21T06:07:39;100879.34;;;5.39;100.00
58775;BME280;44545;47.480;19.024;2024-02-21T06:10:41;100882.94;;;5.41;100.00
58775;BME280;44545;47.480;19.024;2024-02-21T06:13:44;100880.59;;;5.55;100.00
58775;BME280;44545;47.480;19.024;2024-02-21T06:16:46;100887.94;;;5.71;100.00
58775;BME280;44545;47.480;19.024;2024-02-21T06:19:48;100878.69;;;5.95;100.00
58775;BME280;44545;47.480;19.024;2024-02-21T06:22:51;100890.56;;;6.03;100.00
58775;BME280;44545;47.480;19.024;2024-02-21T06:25:53;100878.84;;;6.18;100.00
58775;BME280;44545;47.480;19.024;2024-02-21T06:28:56;100878.09;;;6.75;100.00
58775;BME280;44545;47.480;19.024;2024-02-21T06:31:59;100878.84;;;7.53;100.00
58775;BME280;44545;47.480;19.024;2024-02-21T06:35:02;100878.06;;;8.38;100.00
58775;BME280;44545;47.480;19.024;2024-02-21T06:38:04;100870.69;;;8.81;100.00
58775;BME280;44545;47.480;19.024;2024-02-21T06:41:15;100865.81;;;9.24;100.00
58775;BME280;44545;47.480;19.024;2024-02-21T06:44:18;100871.34;;;9.55;100.00
58775;BME280;44545;47.480;19.024;2024-02-21T06:47:20;100862.97;;;9.21;100.00
58775;BME280;44545;47.480;19.024;2024-02-21T06:50:22;100862.03;;;9.46;97.80
58775;BME280;44545;47.480;19.024;2024-02-21T06:53:25;100867.41;;;9.22;100.00
58775;BME280;44545;47.480;19.024;2024-02-21T06:56:27;100864.28;;;8.76;100.00
58775;BME280;44545;47.480;19.024;2024-02-21T06:59:33;100861.34;;;8.35;100.00
58775;BME280;44545;47.480;19.024;2024-02-21T07:02:35;100876.66;;;7.95;100.00
58775;BME280;44545;47.480;19.024;2024-02-21T07:05:38;100876.44;;;8.03;100.00
58775;BME280;44545;47.480;19.024;2024-02-21T07:08:40;100880.19;;;7.84;100.00
58775;BME280;44545;47.480;19.024;2024-02-21T07:11:43;100877.50;;;7.70;100.00
58775;BME280;44545;47.480;19.024;2024-02-21T07:14:45;100878.94;;;7.90;100.00
58775;BME280;44545;47.480;19.024;2024-02-21T07:17:48;100884.69;;;7.98;100.00
58775;BME280;44545;47.480;19.024;2024-02-21T07:20:51;100893.94;;;8.06;100.00
58775;BME280;44545;47.480;19.024;2024-02-21T07:23:54;100893.69;;;8.27;100.00
58775;BME280;44545;47.480;19.024;2024-02-21T07:26:56;100895.06;;;9.47;99.95
58775;BME280;44545;47.480;19.024;2024-02-21T07:29:59;100914.66;;;11.62;84.22
58775;BME280;44545;47.480;19.024;2024-02-21T07:33:02;100965.16;;;13.17;68.16
58775;BME280;44545;47.480;19.024;2024-02-21T07:36:10;100967.47;;;13.78;65.65
58775;BME280;44545;47.480;19.024;2024-02-21T07:39:13;101004.25;;;15.05;60.04
58775;BME280;44545;47.480;19.024;2024-02-21T07:42:15;101041.75;;;15.79;55.14
58775;BME280;44545;47.480;19.024;2024-02-21T07:45:17;101059.88;;;16.13;53.17
58775;BME280;44545;47.480;19.024;2024-02-21T07:48:26;101027.97;;;15.65;53.02
58775;BME280;44545;47.480;19.024;2024-02-21T07:51:29;100985.16;;;15.29;55.33
58775;BME280;44545;47.480;19.024;2024-02-21T07:54:31;101018.84;;;15.97;52.84
58775;BME280;44545;47.480;19.024;2024-02-21T07:57:34;100989.22;;;15.42;53.56
58775;BME280;44545;47.480;19.024;2024-02-21T08:00:36;100955.34;;;14.70;54.88
58775;BME280;44545;47.480;19.024;2024-02-21T08:03:41;100954.25;;;14.84;54.97
58775;BME280;44545;47.480;19.024;2024-02-21T08:06:44;100930.56;;;14.83;56.42
58775;BME280;44545;47.480;19.024;2024-02-21T08:09:47;100955.91;;;14.82;55.39
58775;BME280;44545;47.480;19.024;2024-02-21T08:12:49;100948.72;;;14.78;55.57
58775;BME280;44545;47.480;19.024;2024-02-21T08:15:52;100887.44;;;14.03;58.13
58775;BME280;44545;47.480;19.024;2024-02-21T08:18:54;100863.38;;;13.07;61.25
58775;BME280;44545;47.480;19.024;2024-02-21T08:21:57;100861.13;;;12.97;63.33
58775;BME280;44545;47.480;19.024;2024-02-21T08:24:59;100851.00;;;12.23;66.07
58775;BME280;44545;47.480;19.024;2024-02-21T08:28:02;100881.81;;;12.12;68.14
58775;BME280;44545;47.480;19.024;2024-02-21T08:31:04;100911.34;;;12.90;66.70
58775;BME280;44545;47.480;19.024;2024-02-21T08:34:06;100912.47;;;12.46;65.11
58775;BME280;44545;47.480;19.024;2024-02-21T08:37:09;100911.63;;;12.63;65.76
58775;BME280;44545;47.480;19.024;2024-02-21T08:40:14;100919.69;;;12.83;65.11
58775;BME280;44545;47.480;19.024;2024-02-21T08:43:19;100917.81;;;12.96;64.04
58775;BME280;44545;47.480;19.024;2024-02-21T08:46:22;100936.59;;;13.38;62.53
58775;BME280;44545;47.480;19.024;2024-02-21T08:49:26;100955.87;;;13.91;60.80
58775;BME280;44545;47.480;19.024;2024-02-21T08:52:36;100979.63;;;14.66;58.05
58775;BME280;44545;47.480;19.024;2024-02-21T08:55:38;100944.78;;;13.97;58.92
58775;BME280;44545;47.480;19.024;2024-02-21T08:58:41;100884.56;;;12.95;62.17
58775;BME280;44545;47.480;19.024;2024-02-21T09:01:43;100859.25;;;12.14;67.13
58775;BME280;44545;47.480;19.024;2024-02-21T09:04:46;100901.31;;;12.33;66.57
58775;BME280;44545;47.480;19.024;2024-02-21T09:07:48;100915.41;;;13.17;65.23
58775;BME280;44545;47.480;19.024;2024-02-21T09:10:52;100921.47;;;13.33;62.96
58775;BME280;44545;47.480;19.024;2024-02-21T09:13:54;100914.25;;;13.45;62.78
58775;BME280;44545;47.480;19.024;2024-02-21T09:16:57;100932.75;;;14.00;61.11
58775;BME280;44545;47.480;19.024;2024-02-21T09:19:59;100922.38;;;13.68;60.90
58775;BME280;44545;47.480;19.024;2024-02-21T09:23:05;100912.25;;;13.57;60.94
58775;BME280;44545;47.480;19.024;2024-02-21T09:26:08;100908.53;;;13.70;60.83
58775;BME280;44545;47.480;19.024;2024-02-21T09:29:12;100942.47;;;13.85;58.19
58775;BME280;44545;47.480;19.024;2024-02-21T09:32:15;100942.31;;;14.00;58.41
58775;BME280;44545;47.480;19.024;2024-02-21T09:35:17;100921.84;;;13.75;58.11
58775;BME280;44545;47.480;19.024;2024-02-21T09:38:20;101068.31;;;16.90;50.96
58775;BME280;44545;47.480;19.024;2024-02-21T09:41:27;101048.47;;;16.34;50.29
58775;BME280;44545;47.480;19.024;2024-02-21T09:44:31;100980.91;;;14.74;52.65
58775;BME280;44545;47.480;19.024;2024-02-21T09:51:13;100937.84;;;14.70;54.04
58775;BME280;44545;47.480;19.024;2024-02-21T09:54:16;100920.72;;;14.59;54.98
58775;BME280;44545;47.480;19.024;2024-02-21T09:57:21;100979.84;;;15.27;52.56
58775;BME280;44545;47.480;19.024;2024-02-21T10:00:25;100977.91;;;14.84;52.36
58775;BME280;44545;47.480;19.024;2024-02-21T10:03:27;100945.72;;;14.52;53.34
58775;BME280;44545;47.480;19.024;2024-02-21T10:06:29;100979.00;;;15.09;51.75
58775;BME280;44545;47.480;19.024;2024-02-21T10:09:32;100922.06;;;14.69;53.60
58775;BME280;44545;47.480;19.024;2024-02-21T10:12:35;100966.63;;;15.45;51.79
58775;BME280;44545;47.480;19.024;2024-02-21T10:15:38;101007.47;;;16.40;49.37
58775;BME280;44545;47.480;19.024;2024-02-21T10:18:40;101089.06;;;17.74;45.99
58775;BME280;44545;47.480;19.024;2024-02-21T10:21:43;101032.09;;;16.63;47.15
58775;BME280;44545;47.480;19.024;2024-02-21T10:24:47;100997.09;;;16.22;48.01
58775;BME280;44545;47.480;19.024;2024-02-21T10:27:49;100986.72;;;16.48;48.64
58775;BME280;44545;47.480;19.024;2024-02-21T10:30:53;100885.50;;;14.36;52.39
58775;BME280;44545;47.480;19.024;2024-02-21T10:34:00;100884.06;;;14.05;52.56
58775;BME280;44545;47.480;19.024;2024-02-21T10:37:11;100833.03;;;13.99;55.10
58775;BME280;44545;47.480;19.024;2024-02-21T10:40:14;100881.75;;;14.31;53.37
58775;BME280;44545;47.480;19.024;2024-02-21T10:43:16;100886.41;;;14.37;52.79
58775;BME280;44545;47.480;19.024;2024-02-21T10:46:22;100858.59;;;14.03;53.97
58775;BME280;44545;47.480;19.024;2024-02-21T10:49:26;100817.31;;;13.45;55.95
58775;BME280;44545;47.480;19.024;2024-02-21T10:55:49;100854.88;;;13.99;53.80
58775;BME280;44545;47.480;19.024;2024-02-21T10:58:58;100873.97;;;14.89;52.56
58775;BME280;44545;47.480;19.024;2024-02-21T11:02:03;100941.78;;;16.00;49.23
58775;BME280;44545;47.480;19.024;2024-02-21T11:05:06;100998.75;;;16.85;46.60
58775;BME280;44545;47.480;19.024;2024-02-21T11:08:09;101221.72;;;21.33;38.19
58775;BME280;44545;47.480;19.024;2024-02-21T11:11:13;101401.56;;;24.52;31.11
58775;BME280;44545;47.480;19.024;2024-02-21T11:14:38;101358.91;;;23.38;30.81
58775;BME280;44545;47.480;19.024;2024-02-21T11:17:42;101200.03;;;20.78;34.11
58775;BME280;44545;47.480;19.024;2024-02-21T11:21:02;100986.63;;;17.37;40.06
58775;BME280;44545;47.480;19.024;2024-02-21T11:24:07;100913.69;;;16.42;42.46
58775;BME280;44545;47.480;19.024;2024-02-21T11:27:11;101097.09;;;19.94;36.59
58775;BME280;44545;47.480;19.024;2024-02-21T11:30:14;101080.53;;;18.83;37.38
58775;BME280;44545;47.480;19.024;2024-02-21T11:33:18;101020.34;;;17.93;38.85
58775;BME280;44545;47.480;19.024;2024-02-21T11:36:27;100916.19;;;16.17;41.84
58775;BME280;44545;47.480;19.024;2024-02-21T11:39:29;100913.50;;;16.83;41.81
58775;BME280;44545;47.480;19.024;2024-02-21T11:42:32;101019.87;;;18.87;38.10
58775;BME280;44545;47.480;19.024;2024-02-21T11:45:34;101352.09;;;24.13;29.29
58775;BME280;44545;47.480;19.024;2024-02-21T11:48:36;101413.59;;;25.71;26.91
58775;BME280;44545;47.480;19.024;2024-02-21T11:51:39;101543.03;;;29.46;22.90
58775;BME280;44545;47.480;19.024;2024-02-21T11:54:41;101475.34;;;26.01;24.83
58775;BME280;44545;47.480;19.024;2024-02-21T11:57:44;101164.03;;;20.87;32.41
58775;BME280;44545;47.480;19.024;2024-02-21T12:00:48;100951.38;;;17.59;38.05
58775;BME280;44545;47.480;19.024;2024-02-21T12:03:50;100771.88;;;15.18;43.94
58775;BME280;44545;47.480;19.024;2024-02-21T12:06:53;100688.53;;;14.31;47.48
58775;BME280;44545;47.480;19.024;2024-02-21T12:09:59;100645.41;;;13.66;49.95
58775;BME280;44545;47.480;19.024;2024-02-21T12:13:09;100624.25;;;13.07;51.58
58775;BME280;44545;47.480;19.024;2024-02-21T12:16:15;100615.94;;;12.62;52.80
58775;BME280;44545;47.480;19.024;2024-02-21T12:19:17;100682.09;;;13.66;51.12
58775;BME280;44545;47.480;19.024;2024-02-21T12:22:21;100766.59;;;13.98;47.91
58775;BME280;44545;47.480;19.024;2024-02-21T12:25:24;100796.94;;;14.69;46.73
58775;BME280;44545;47.480;19.024;2024-02-21T12:28:29;100755.03;;;13.95;47.80
58775;BME280;44545;47.480;19.024;2024-02-21T12:31:31;100732.37;;;13.40;48.35
58775;BME280;44545;47.480;19.024;2024-02-21T12:34:34;100716.56;;;12.86;49.37
58775;BME280;44545;47.480;19.024;2024-02-21T12:37:54;100707.00;;;12.69;49.95
58775;BME280;44545;47.480;19.024;2024-02-21T12:40:56;100689.59;;;12.53;50.65
58775;BME280;44545;47.480;19.024;2024-02-21T12:44:02;100674.09;;;12.40;51.25
58775;BME280;44545;47.480;19.024;2024-02-21T12:47:06;100656.53;;;12.03;52.18
58775;BME280;44545;47.480;19.024;2024-02-21T12:50:10;100657.72;;;12.26;52.60
58775;BME280;44545;47.480;19.024;2024-02-21T12:53:14;100656.41;;;12.18;52.57
58775;BME280;44545;47.480;19.024;2024-02-21T12:56:27;100654.31;;;11.94;53.07
58775;BME280;44545;47.480;19.024;2024-02-21T12:59:30;100621.06;;;11.91;54.86
58775;BME280;44545;47.480;19.024;2024-02-21T13:02:32;100608.16;;;11.78;55.81
58775;BME280;44545;47.480;19.024;2024-02-21T13:05:36;100619.69;;;11.98;55.80
58775;BME280;44545;47.480;19.024;2024-02-21T13:08:40;100625.97;;;12.02;55.74
58775;BME280;44545;47.480;19.024;2024-02-21T13:11:44;100639.56;;;12.12;56.20
58775;BME280;44545;47.480;19.024;2024-02-21T13:14:48;100646.41;;;11.92;55.70
58775;BME280;44545;47.480;19.024;2024-02-21T13:17:50;100644.84;;;11.96;55.54
58775;BME280;44545;47.480;19.024;2024-02-21T13:20:53;100668.06;;;12.41;54.72
58775;BME280;44545;47.480;19.024;2024-02-21T13:23:56;100694.44;;;12.79;53.40
58775;BME280;44545;47.480;19.024;2024-02-21T13:26:58;100721.44;;;13.31;51.74
58775;BME280;44545;47.480;19.024;2024-02-21T13:30:01;100738.63;;;13.43;50.34
58775;BME280;44545;47.480;19.024;2024-02-21T13:33:07;100751.31;;;13.52;49.24
58775;BME280;44545;47.480;19.024;2024-02-21T13:36:10;100731.72;;;13.10;49.59
58775;BME280;44545;47.480;19.024;2024-02-21T13:39:12;100709.25;;;12.79;50.21
58775;BME280;44545;47.480;19.024;2024-02-21T13:42:18;100689.78;;;12.56;50.63
58775;BME280;44545;47.480;19.024;2024-02-21T13:45:21;100679.19;;;12.36;51.40
58775;BME280;44545;47.480;19.024;2024-02-21T13:48:23;100653.72;;;12.16;51.97
58775;BME280;44545;47.480;19.024;2024-02-21T13:51:27;100637.22;;;12.17;52.71
58775;BME280;44545;47.480;19.024;2024-02-21T13:54:30;100641.69;;;12.20;52.91
58775;BME280;44545;47.480;19.024;2024-02-21T13:57:32;100618.44;;;11.91;53.39
58775;BME280;44545;47.480;19.024;2024-02-21T14:00:35;100602.34;;;11.84;54.15
58775;BME280;44545;47.480;19.024;2024-02-21T14:03:38;100604.59;;;11.92;54.44
58775;BME280;44545;47.480;19.024;2024-02-21T14:06:41;100577.62;;;11.93;55.72
58775;BME280;44545;47.480;19.024;2024-02-21T14:09:46;100618.69;;;11.96;54.14
58775;BME280;44545;47.480;19.024;2024-02-21T14:12:50;100621.69;;;11.71;53.89
58775;BME280;44545;47.480;19.024;2024-02-21T14:15:52;100616.69;;;11.59;54.63
58775;BME280;44545;47.480;19.024;2024-02-21T14:18:55;100611.25;;;11.55;54.95
58775;BME280;44545;47.480;19.024;2024-02-21T14:21:57;100636.06;;;11.79;53.57
58775;BME280;44545;47.480;19.024;2024-02-21T14:25:00;100627.63;;;11.85;53.87
58775;BME280;44545;47.480;19.024;2024-02-21T14:28:03;100641.06;;;12.07;53.31
58775;BME280;44545;47.480;19.024;2024-02-21T14:31:06;100649.81;;;12.08;52.91
58775;BME280;44545;47.480;19.024;2024-02-21T14:34:11;100650.31;;;12.01;52.73
58775;BME280;44545;47.480;19.024;2024-02-21T14:37:15;100644.00;;;11.97;52.75
58775;BME280;44545;47.480;19.024;2024-02-21T14:40:17;100622.94;;;11.94;53.37
58775;BME280;44545;47.480;19.024;2024-02-21T14:43:22;100639.09;;;11.70;52.62
58775;BME280;44545;47.480;19.024;2024-02-21T14:46:25;100628.88;;;11.75;53.30
58775;BME280;44545;47.480;19.024;2024-02-21T14:49:27;100594.13;;;11.60;54.64
58775;BME280;44545;47.480;19.024;2024-02-21T14:52:31;100620.41;;;11.63;53.67
58775;BME280;44545;47.480;19.024;2024-02-21T14:55:35;100608.78;;;11.74;54.01
58775;BME280;44545;47.480;19.024;2024-02-21T14:58:38;100602.69;;;11.57;54.29
58775;BME280;44545;47.480;19.024;2024-02-21T15:01:41;100599.25;;;11.58;54.26
58775;BME280;44545;47.480;19.024;2024-02-21T15:04:43;100610.59;;;11.75;53.66
58775;BME280;44545;47.480;19.024;2024-02-21T15:07:46;100618.03;;;11.84;53.34
58775;BME280;44545;47.480;19.024;2024-02-21T15:10:48;100605.84;;;11.84;53.31
58775;BME280;44545;47.480;19.024;2024-02-21T15:13:55;100597.28;;;11.70;53.57
58775;BME280;44545;47.480;19.024;2024-02-21T15:16:58;100598.34;;;11.74;53.53
58775;BME280;44545;47.480;19.024;2024-02-21T15:20:00;100592.31;;;11.59;53.53
58775;BME280;44545;47.480;19.024;2024-02-21T15:23:03;100562.66;;;11.42;54.86
58775;BME280;44545;47.480;19.024;2024-02-21T15:26:07;100561.22;;;11.47;55.04
58775;BME280;44545;47.480;19.024;2024-02-21T15:29:10;100571.75;;;11.32;55.28
58775;BME280;44545;47.480;19.024;2024-02-21T15:32:12;100564.38;;;11.25;55.77
58775;BME280;44545;47.480;19.024;2024-02-21T15:35:15;100561.69;;;11.23;56.07
58775;BME280;44545;47.480;19.024;2024-02-21T15:38:22;100553.44;;;11.16;56.08
58775;BME280;44545;47.480;19.024;2024-02-21T15:41:24;100544.88;;;11.18;57.12
58775;BME280;44545;47.480;19.024;2024-02-21T15:44:26;100547.62;;;11.21;57.22
58775;BME280;44545;47.480;19.024;2024-02-21T15:47:29;100556.03;;;11.16;57.02
58775;BME280;44545;47.480;19.024;2024-02-21T15:50:31;100547.69;;;10.90;57.52
58775;BME280;44545;47.480;19.024;2024-02-21T15:53:34;100514.06;;;10.80;59.76
58775;BME280;44545;47.480;19.024;2024-02-21T15:56:36;100520.28;;;10.98;62.61
58775;BME280;44545;47.480;19.024;2024-02-21T15:59:39;100542.56;;;10.92;63.46
58775;BME280;44545;47.480;19.024;2024-02-21T16:02:41;100560.69;;;11.05;63.21
58775;BME280;44545;47.480;19.024;2024-02-21T16:05:44;100559.88;;;10.75;66.37
58775;BME280;44545;47.480;19.024;2024-02-21T16:08:46;100571.44;;;10.63;69.58
58775;BME280;44545;47.480;19.024;2024-02-21T16:11:52;100564.12;;;10.58;70.59
58775;BME280;44545;47.480;19.024;2024-02-21T16:14:54;100570.47;;;10.32;71.75
58775;BME280;44545;47.480;19.024;2024-02-21T16:17:56;100572.91;;;10.29;74.64
58775;BME280;44545;47.480;19.024;2024-02-21T16:20:59;100571.88;;;10.27;75.76
58775;BME280;44545;47.480;19.024;2024-02-21T16:24:01;100575.19;;;10.09;74.37
58775;BME280;44545;47.480;19.024;2024-02-21T16:27:04;100583.81;;;10.08;72.55
58775;BME280;44545;47.480;19.024;2024-02-21T16:30:12;100589.37;;;10.14;71.69
58775;BME280;44545;47.480;19.024;2024-02-21T16:33:14;100584.59;;;9.92;73.52
58775;BME280;44545;47.480;19.024;2024-02-21T16:36:23;100581.06;;;9.77;72.42
58775;BME280;44545;47.480;19.024;2024-02-21T16:39:26;100577.28;;;9.72;71.47
58775;BME280;44545;47.480;19.024;2024-02-21T16:42:28;100578.91;;;9.70;71.12
58775;BME280;44545;47.480;19.024;2024-02-21T16:45:31;100576.63;;;9.61;72.08
58775;BME280;44545;47.480;19.024;2024-02-21T16:48:34;100583.09;;;9.53;73.57
58775;BME280;44545;47.480;19.024;2024-02-21T16:51:36;100578.12;;;9.43;74.65
58775;BME280;44545;47.480;19.024;2024-02-21T16:54:39;100576.84;;;9.36;75.97
58775;BME280;44545;47.480;19.024;2024-02-21T16:57:41;100581.12;;;9.36;76.37
58775;BME280;44545;47.480;19.024;2024-02-21T17:00:45;100584.16;;;9.28;77.42
58775;BME280;44545;47.480;19.024;2024-02-21T17:03:48;100582.91;;;9.22;79.95
58775;BME280;44545;47.480;19.024;2024-02-21T17:06:51;100594.00;;;9.19;79.18
58775;BME280;44545;47.480;19.024;2024-02-21T17:09:54;100589.47;;;9.30;84.38
58775;BME280;44545;47.480;19.024;2024-02-21T17:12:56;100586.88;;;9.30;83.28
58775;BME280;44545;47.480;19.024;2024-02-21T17:15:59;100590.22;;;9.14;83.93
58775;BME280;44545;47.480;19.024;2024-02-21T17:19:01;100590.38;;;9.30;85.20
58775;BME280;44545;47.480;19.024;2024-02-21T17:22:03;100580.78;;;9.16;81.73
58775;BME280;44545;47.480;19.024;2024-02-21T17:25:06;100578.41;;;9.06;83.74
58775;BME280;44545;47.480;19.024;2024-02-21T17:28:12;100576.31;;;9.00;84.64
58775;BME280;44545;47.480;19.024;2024-02-21T17:31:14;100573.63;;;8.99;85.02
58775;BME280;44545;47.480;19.024;2024-02-21T17:34:16;100571.25;;;9.30;87.60
58775;BME280;44545;47.480;19.024;2024-02-21T17:37:19;100571.00;;;9.12;83.58
58775;BME280;44545;47.480;19.024;2024-02-21T17:40:21;100566.09;;;9.03;84.33
58775;BME280;44545;47.480;19.024;2024-02-21T17:43:23;100556.41;;;9.01;83.87
58775;BME280;44545;47.480;19.024;2024-02-21T17:46:26;100548.59;;;9.01;84.80
58775;BME280;44545;47.480;19.024;2024-02-21T17:49:28;100549.25;;;8.97;84.72
58775;BME280;44545;47.480;19.024;2024-02-21T17:52:31;100546.53;;;8.95;83.92
58775;BME280;44545;47.480;19.024;2024-02-21T17:55:33;100552.03;;;9.28;84.71
58775;BME280;44545;47.480;19.024;2024-02-21T17:58:36;100555.06;;;9.49;86.88
58775;BME280;44545;47.480;19.024;2024-02-21T18:01:38;100553.13;;;9.60;87.10
58775;BME280;44545;47.480;19.024;2024-02-21T18:04:41;100555.19;;;9.65;83.80
58775;BME280;44545;47.480;19.024;2024-02-21T18:07:43;100553.22;;;9.61;83.75
58775;BME280;44545;47.480;19.024;2024-02-21T18:10:46;100544.88;;;9.39;90.59
58775;BME280;44545;47.480;19.024;2024-02-21T18:13:48;100552.56;;;9.22;88.13
58775;BME280;44545;47.480;19.024;2024-02-21T18:16:51;100551.12;;;8.99;82.35
58775;BME280;44545;47.480;19.024;2024-02-21T18:19:53;100538.84;;;8.97;82.00
58775;BME280;44545;47.480;19.024;2024-02-21T18:22:56;100538.63;;;8.94;81.08
58775;BME280;44545;47.480;19.024;2024-02-21T18:25:58;100532.44;;;8.92;82.16
58775;BME280;44545;47.480;19.024;2024-02-21T18:29:02;100534.81;;;8.88;84.82
58775;BME280;44545;47.480;19.024;2024-02-21T18:32:04;100531.03;;;8.83;85.72
58775;BME280;44545;47.480;19.024;2024-02-21T18:35:07;100531.56;;;8.78;86.17
58775;BME280;44545;47.480;19.024;2024-02-21T18:38:10;100532.06;;;8.72;86.46
58775;BME280;44545;47.480;19.024;2024-02-21T18:41:12;100524.87;;;8.68;86.08
58775;BME280;44545;47.480;19.024;2024-02-21T18:44:15;100535.19;;;8.66;85.51
58775;BME280;44545;47.480;19.024;2024-02-21T18:47:17;100530.56;;;8.62;85.13
58775;BME280;44545;47.480;19.024;2024-02-21T18:50:19;100529.28;;;8.69;86.52
58775;BME280;44545;47.480;19.024;2024-02-21T18:53:22;100525.00;;;8.98;85.03
58775;BME280;44545;47.480;19.024;2024-02-21T18:56:24;100520.66;;;8.70;84.12
58775;BME280;44545;47.480;19.024;2024-02-21T18:59:30;100531.78;;;8.54;85.41
58775;BME280;44545;47.480;19.024;2024-02-21T19:02:33;100525.78;;;8.55;86.75
58775;BME280;44545;47.480;19.024;2024-02-21T19:05:35;100513.06;;;8.86;86.16
58775;BME280;44545;47.480;19.024;2024-02-21T19:08:37;100513.59;;;8.96;91.67
58775;BME280;44545;47.480;19.024;2024-02-21T19:11:40;100512.44;;;8.90;88.33
58775;BME280;44545;47.480;19.024;2024-02-21T19:14:42;100501.13;;;8.90;86.51
58775;BME280;44545;47.480;19.024;2024-02-21T19:17:45;100501.59;;;8.98;86.22
58775;BME280;44545;47.480;19.024;2024-02-21T19:20:47;100507.44;;;8.80;88.15
58775;BME280;44545;47.480;19.024;2024-02-21T19:23:49;100501.69;;;8.71;86.95
58775;BME280;44545;47.480;19.024;2024-02-21T19:26:52;100498.47;;;8.35;85.01
58775;BME280;44545;47.480;19.024;2024-02-21T19:29:54;100495.69;;;8.19;88.23
58775;BME280;44545;47.480;19.024;2024-02-21T19:32:56;100497.66;;;8.10;87.71
58775;BME280;44545;47.480;19.024;2024-02-21T19:35:59;100496.62;;;8.46;91.00
58775;BME280;44545;47.480;19.024;2024-02-21T19:39:02;100493.91;;;8.44;88.49
58775;BME280;44545;47.480;19.024;2024-02-21T19:42:04;100498.16;;;8.17;86.19
58775;BME280;44545;47.480;19.024;2024-02-21T19:45:07;100486.50;;;8.11;86.92
58775;BME280;44545;47.480;19.024;2024-02-21T19:48:10;100495.69;;;8.19;85.54
58775;BME280;44545;47.480;19.024;2024-02-21T19:51:14;100493.47;;;8.12;86.01
58775;BME280;44545;47.480;19.024;2024-02-21T19:54:17;100483.78;;;8.09;86.08
58775;BME280;44545;47.480;19.024;2024-02-21T19:57:26;100480.31;;;8.09;86.89
58775;BME280;44545;47.480;19.024;2024-02-21T20:00:28;100482.69;;;8.06;87.17
58775;BME280;44545;47.480;19.024;2024-02-21T20:03:31;100478.91;;;8.00;88.13
58775;BME280;44545;47.480;19.024;2024-02-21T20:06:33;100477.59;;;7.94;88.53
58775;BME280;44545;47.480;19.024;2024-02-21T20:09:36;100472.47;;;7.82;88.65
58775;BME280;44545;47.480;19.024;2024-02-21T20:12:38;100472.97;;;7.76;90.25
58775;BME280;44545;47.480;19.024;2024-02-21T20:15:42;100471.00;;;7.72;92.45
58775;BME280;44545;47.480;19.024;2024-02-21T20:18:44;100463.31;;;8.00;92.42